地図

経路データ

SID SEASON NUMBER BASIN SUBBASIN NAME ISO_TIME NATURE LAT LON WMO_WIND WMO_PRES WMO_AGENCY TRACK_TYPE DIST2LAND LANDFALL IFLAG USA_AGENCY USA_ATCF_ID USA_LAT USA_LON USA_RECORD USA_STATUS USA_WIND USA_PRES USA_SSHS USA_R34_NE USA_R34_SE USA_R34_SW USA_R34_NW USA_R50_NE USA_R50_SE USA_R50_SW USA_R50_NW USA_R64_NE USA_R64_SE USA_R64_SW USA_R64_NW USA_POCI USA_ROCI USA_RMW USA_EYE TOKYO_LAT TOKYO_LON TOKYO_GRADE TOKYO_WIND TOKYO_PRES TOKYO_R50_DIR TOKYO_R50_LONG TOKYO_R50_SHORT TOKYO_R30_DIR TOKYO_R30_LONG TOKYO_R30_SHORT TOKYO_LAND CMA_LAT CMA_LON CMA_CAT CMA_WIND CMA_PRES HKO_LAT HKO_LON HKO_CAT HKO_WIND HKO_PRES NEWDELHI_LAT NEWDELHI_LON NEWDELHI_GRADE NEWDELHI_WIND NEWDELHI_PRES NEWDELHI_CI NEWDELHI_DP NEWDELHI_POCI REUNION_LAT REUNION_LON REUNION_TYPE REUNION_WIND REUNION_PRES REUNION_TNUM REUNION_CI REUNION_RMW REUNION_R34_NE REUNION_R34_SE REUNION_R34_SW REUNION_R34_NW REUNION_R50_NE REUNION_R50_SE REUNION_R50_SW REUNION_R50_NW REUNION_R64_NE REUNION_R64_SE REUNION_R64_SW REUNION_R64_NW BOM_LAT BOM_LON BOM_TYPE BOM_WIND BOM_PRES BOM_TNUM BOM_CI BOM_RMW BOM_R34_NE BOM_R34_SE BOM_R34_SW BOM_R34_NW BOM_R50_NE BOM_R50_SE BOM_R50_SW BOM_R50_NW BOM_R64_NE BOM_R64_SE BOM_R64_SW BOM_R64_NW BOM_ROCI BOM_POCI BOM_EYE BOM_POS_METHOD BOM_PRES_METHOD NADI_LAT NADI_LON NADI_CAT NADI_WIND NADI_PRES WELLINGTON_LAT WELLINGTON_LON WELLINGTON_WIND WELLINGTON_PRES DS824_LAT DS824_LON DS824_STAGE DS824_WIND DS824_PRES TD9636_LAT TD9636_LON TD9636_STAGE TD9636_WIND TD9636_PRES TD9635_LAT TD9635_LON TD9635_WIND TD9635_PRES TD9635_ROCI NEUMANN_LAT NEUMANN_LON NEUMANN_CLASS NEUMANN_WIND NEUMANN_PRES MLC_LAT MLC_LON MLC_CLASS MLC_WIND MLC_PRES USA_GUST BOM_GUST BOM_GUST_PER REUNION_GUST REUNION_GUST_PER USA_SEAHGT USA_SEARAD_NE USA_SEARAD_SE USA_SEARAD_SW USA_SEARAD_NW STORM_SPEED STORM_DIR
1920184N17087 1920 21 NI BB NOT_NAMED 1920-07-02 03:00:00 NR 16.8000 87.4000 main 371 362 __________O___ -1 16.8000 87.4000 7 2 9
1920184N17087 1920 21 NI BB NOT_NAMED 1920-07-02 06:00:00 NR 16.9234 87.4047 main 362 351 __________P___ -1 16.9234 87.4047 7 2 0
1920184N17087 1920 21 NI BB NOT_NAMED 1920-07-02 09:00:00 NR 17.0475 87.4075 main 351 330 __________P___ -1 17.0475 87.4075 7 3 5
1920184N17087 1920 21 NI BB NOT_NAMED 1920-07-02 12:00:00 NR 17.1728 87.4066 main 330 319 __________P___ -1 17.1728 87.4066 7 3 355
1920184N17087 1920 21 NI BB NOT_NAMED 1920-07-02 15:00:00 NR 17.3000 87.4000 main 319 309 __________O___ -1 17.3000 87.4000 7 3 358
1920184N17087 1920 21 NI BB NOT_NAMED 1920-07-02 18:00:00 NR 17.4291 87.3863 main 309 288 __________P___ -1 17.4291 87.3863 7 3 353
1920184N17087 1920 21 NI BB NOT_NAMED 1920-07-02 21:00:00 NR 17.5575 87.3650 main 288 274 __________P___ -1 17.5575 87.3650 7 3 351
1920184N17087 1920 21 NI BB NOT_NAMED 1920-07-03 00:00:00 NR 17.6822 87.3362 main 274 263 __________P___ -1 17.6822 87.3362 7 3 346
1920184N17087 1920 21 NI BB NOT_NAMED 1920-07-03 03:00:00 NR 17.8000 87.3000 main 263 253 __________O___ -1 17.8000 87.3000 7 2 339
1920184N17087 1920 21 NI BB NOT_NAMED 1920-07-03 06:00:00 NR 17.8950 87.2531 main 253 239 __________P___ -1 17.8950 87.2531 7 2 332
1920184N17087 1920 21 NI BB NOT_NAMED 1920-07-03 09:00:00 NR 17.9850 87.2000 main 239 224 __________P___ -1 17.9850 87.2000 7 2 332
1920184N17087 1920 21 NI BB NOT_NAMED 1920-07-03 12:00:00 NR 18.0825 87.1469 main 224 214 __________P___ -1 18.0825 87.1469 7 2 335
1920184N17087 1920 21 NI BB NOT_NAMED 1920-07-03 15:00:00 NR 18.2000 87.1000 main 214 203 __________O___ -1 18.2000 87.1000 7 3 354
1920184N17087 1920 21 NI BB NOT_NAMED 1920-07-03 18:00:00 NR 18.3493 87.0960 main 203 183 __________P___ -1 18.3493 87.0960 7 3 0
1920184N17087 1920 21 NI BB NOT_NAMED 1920-07-03 21:00:00 NR 18.5199 87.0946 main 183 162 __________P___ -1 18.5199 87.0946 7 4 0
1920184N17087 1920 21 NI BB NOT_NAMED 1920-07-04 00:00:00 NR 18.7055 87.0709 main 162 138 __________P___ -1 18.7055 87.0709 7 4 347
1920184N17087 1920 21 NI BB NOT_NAMED 1920-07-04 03:00:00 NR 18.9000 87.0000 main 138 113 __________O___ -1 18.9000 87.0000 7 5 333
1920184N17087 1920 21 NI BB NOT_NAMED 1920-07-04 06:00:00 NR 19.1051 86.8546 main 113 84 __________P___ -1 19.1051 86.8546 7 5 322
1920184N17087 1920 21 NI BB NOT_NAMED 1920-07-04 09:00:00 NR 19.3151 86.6603 main 84 54 __________P___ -1 19.3151 86.6603 7 6 316
1920184N17087 1920 21 NI BB NOT_NAMED 1920-07-04 12:00:00 NR 19.5176 86.4358 main 54 24 __________P___ -1 19.5176 86.4358 7 6 312
1920184N17087 1920 21 NI BB NOT_NAMED 1920-07-04 15:00:00 NR 19.7000 86.2000 main 24 11 __________O___ -1 19.7000 86.2000 7 6 307
1920184N17087 1920 21 NI BB NOT_NAMED 1920-07-04 18:00:00 NR 19.8535 85.9683 main 0 0 __________P___ -1 19.8535 85.9683 7 5 303
1920184N17087 1920 21 NI BB NOT_NAMED 1920-07-04 21:00:00 NR 19.9826 85.7425 main 0 0 __________P___ -1 19.9826 85.7425 7 5 300
1920184N17087 1920 21 NI BB NOT_NAMED 1920-07-05 00:00:00 NR 20.0954 85.5203 main 0 0 __________P___ -1 20.0954 85.5203 7 5 298
1920184N17087 1920 21 NI BB NOT_NAMED 1920-07-05 03:00:00 NR 20.2000 85.3000 main 0 __________O___ -1 20.2000 85.3000 7 5 297

IBTrACS Databaseについて

本データベースは、米国NOAAが公開する1842年以降の世界の熱帯低気圧のベストトラックデータアーカイブInternational Best Track Archive for Climate Stewardship (IBTrACS)を、ウェブで閲覧しやすい形式に変換したものです。

最終更新日:2021-10-08